createdAt,value
2022-08-01T00:03:49.488Z,100109.84
2022-08-01T00:09:11.440Z,100114.72
2022-08-01T00:14:45.787Z,100090.28
2022-08-01T00:20:10.175Z,100096.34
2022-08-01T00:25:33.988Z,100106.56
2022-08-01T00:30:56.523Z,100091.78
2022-08-01T00:36:18.383Z,100095.88
2022-08-01T00:41:40.197Z,100087.50
2022-08-01T00:47:02.567Z,100096.81
2022-08-01T00:52:24.518Z,100082.38
2022-08-01T00:58:02.726Z,100096.06
2022-08-01T01:03:56.373Z,100097.16
2022-08-01T01:09:33.364Z,100096.13
2022-08-01T01:15:19.629Z,100094.09
2022-08-01T01:20:49.120Z,100087.28
2022-08-01T01:26:37.245Z,100099.16
2022-08-01T01:32:07.445Z,100086.13
2022-08-01T01:37:32.873Z,100098.13
2022-08-01T01:42:57.603Z,100091.69
2022-08-01T01:48:21.721Z,100089.44
2022-08-01T01:53:45.860Z,100087.16
2022-08-01T01:59:07.822Z,100092.66
2022-08-01T02:04:30.563Z,100086.81
2022-08-01T02:09:53.424Z,100089.84
2022-08-01T02:15:16.549Z,100087.31
2022-08-01T02:20:39.131Z,100082.88
2022-08-01T02:26:10.470Z,100092.69
2022-08-01T02:31:39.186Z,100080.97
2022-08-01T02:37:02.449Z,100092.63
2022-08-01T02:42:27.493Z,100097.00
2022-08-01T02:47:52.690Z,100093.47
2022-08-01T02:53:17.595Z,100099.38
2022-08-01T02:58:40.758Z,100098.88
2022-08-01T03:04:05.480Z,100097.19
2022-08-01T03:09:29.445Z,100103.97
2022-08-01T03:14:54.534Z,100119.00
2022-08-01T03:20:19.138Z,100112.88
2022-08-01T03:25:44.183Z,100108.59
2022-08-01T03:31:06.294Z,100097.19
2022-08-01T03:36:30.981Z,100102.34
2022-08-01T03:41:57.461Z,100116.59
2022-08-01T03:47:22.751Z,100117.16
2022-08-01T03:52:47.495Z,100119.59
2022-08-01T03:58:10.702Z,100127.06
2022-08-01T04:03:33.579Z,100126.81
2022-08-01T04:09:03.989Z,100132.47
2022-08-01T04:14:25.797Z,100139.31
2022-08-01T04:19:47.649Z,100132.41
2022-08-01T04:25:18.525Z,100140.53
2022-08-01T04:30:40.799Z,100154.84
2022-08-01T04:36:05.229Z,100153.34
2022-08-01T04:41:27.539Z,100157.50
2022-08-01T04:46:50.529Z,100159.56
2022-08-01T04:52:18.068Z,100155.88
2022-08-01T04:57:44.852Z,100152.59
2022-08-01T05:03:06.772Z,100161.63
2022-08-01T05:08:28.639Z,100148.88
2022-08-01T05:13:50.463Z,100168.13
2022-08-01T05:19:13.201Z,100167.09
2022-08-01T05:24:37.141Z,100175.06
2022-08-01T05:30:01.929Z,100176.09
2022-08-01T05:35:23.792Z,100187.66
2022-08-01T05:41:05.640Z,100184.22
2022-08-01T05:46:27.677Z,100183.47
2022-08-01T05:51:49.619Z,100191.78
2022-08-01T05:57:11.462Z,100203.63
2022-08-01T06:02:34.402Z,100209.53
2022-08-01T06:07:56.265Z,100209.78
2022-08-01T06:13:18.715Z,100203.97
2022-08-01T06:18:40.539Z,100188.25
2022-08-01T06:24:02.384Z,100197.47
2022-08-01T06:29:24.266Z,100199.72
2022-08-01T06:34:46.134Z,100189.34
2022-08-01T06:40:16.224Z,100197.38
2022-08-01T06:45:40.256Z,100205.38
2022-08-01T06:51:02.077Z,100208.47
2022-08-01T06:56:23.936Z,100201.19
2022-08-01T07:01:45.737Z,100200.50
2022-08-01T07:07:08.560Z,100180.69
2022-08-01T07:12:30.286Z,100190.16
2022-08-01T07:17:52.180Z,100194.97
2022-08-01T07:23:14.125Z,100191.97
2022-08-01T07:28:36.280Z,100193.22
2022-08-01T07:34:06.049Z,100190.63
2022-08-01T07:39:27.840Z,100184.13
2022-08-01T07:44:49.687Z,100168.88
2022-08-01T07:50:11.931Z,100179.63
2022-08-01T07:55:33.836Z,100178.94
2022-08-01T08:00:55.649Z,100173.78
2022-08-01T08:06:17.488Z,100181.56
2022-08-01T08:11:39.332Z,100172.84
2022-08-01T08:17:01.846Z,100184.22
2022-08-01T08:22:24.139Z,100180.34
2022-08-01T08:27:46.953Z,100181.75
2022-08-01T08:33:13.652Z,100178.91
2022-08-01T08:38:35.687Z,100186.44
2022-08-01T08:43:58.021Z,100193.41
2022-08-01T08:49:26.795Z,100196.41
2022-08-01T08:54:50.473Z,100202.66
2022-08-01T09:00:12.415Z,100202.66
2022-08-01T09:05:38.828Z,100197.63
2022-08-01T09:11:01.303Z,100213.19
2022-08-01T09:16:23.121Z,100225.09
2022-08-01T09:21:59.664Z,100215.09
2022-08-01T09:27:22.895Z,100218.63
2022-08-01T09:33:18.109Z,100218.16
2022-08-01T09:38:47.785Z,100223.94
2022-08-01T09:44:13.505Z,100219.56
2022-08-01T09:49:49.811Z,100203.25
2022-08-01T09:55:13.569Z,100205.59
2022-08-01T10:00:45.435Z,100222.75
2022-08-01T10:06:24.778Z,100205.22
2022-08-01T10:11:47.055Z,100213.13
2022-08-01T10:17:18.359Z,100205.31
2022-08-01T10:22:43.679Z,100206.63
2022-08-01T10:28:23.782Z,100197.31
2022-08-01T10:33:50.377Z,100202.25
2022-08-01T10:39:14.947Z,100209.50
2022-08-01T10:44:42.442Z,100211.81
2022-08-01T10:50:26.175Z,100204.25
2022-08-01T10:55:51.859Z,100182.13
2022-08-01T11:01:21.497Z,100207.41
2022-08-01T11:06:51.507Z,100198.22
2022-08-01T11:12:24.907Z,100193.50
2022-08-01T11:17:47.448Z,100191.69
2022-08-01T11:23:09.395Z,100192.63
2022-08-01T11:28:33.248Z,100192.25
2022-08-01T11:34:03.040Z,100197.53
2022-08-01T11:39:25.341Z,100206.66
2022-08-01T11:44:51.894Z,100200.69
2022-08-01T11:50:32.261Z,100200.66
2022-08-01T11:55:55.011Z,100200.19
2022-08-01T12:01:17.945Z,100193.50
2022-08-01T12:06:40.679Z,100195.16
2022-08-01T12:12:03.706Z,100181.66
2022-08-01T12:17:58.869Z,100192.56
2022-08-01T12:23:21.164Z,100182.03
2022-08-01T12:28:43.132Z,100193.75
2022-08-01T12:34:27.758Z,100191.66
2022-08-01T12:39:49.911Z,100183.00
2022-08-01T12:45:25.018Z,100183.41
2022-08-01T12:50:49.506Z,100179.84
2022-08-01T12:56:11.840Z,100184.84
2022-08-01T13:01:34.096Z,100180.09
2022-08-01T13:06:56.168Z,100182.25
2022-08-01T13:12:18.412Z,100168.19
2022-08-01T13:17:40.280Z,100172.19
2022-08-01T13:24:01.317Z,100174.00
2022-08-01T13:29:09.046Z,100177.38
2022-08-01T13:34:39.926Z,100168.59
2022-08-01T13:40:01.971Z,100176.91
2022-08-01T13:45:24.391Z,100179.63
2022-08-01T13:51:07.350Z,100174.47
2022-08-01T13:56:30.340Z,100177.31
2022-08-01T14:01:52.491Z,100177.81
2022-08-01T14:07:15.053Z,100192.28
2022-08-01T14:12:37.099Z,100186.88
2022-08-01T14:17:59.578Z,100187.31
2022-08-01T14:23:21.524Z,100193.38
2022-08-01T14:28:44.447Z,100193.59
2022-08-01T14:34:06.327Z,100203.22
2022-08-01T14:39:28.154Z,100196.00
2022-08-01T14:44:50.253Z,100188.00
2022-08-01T14:50:14.320Z,100196.97
2022-08-01T14:55:41.763Z,100191.91
2022-08-01T15:01:04.297Z,100201.50
2022-08-01T15:06:26.230Z,100210.47
2022-08-01T15:11:48.032Z,100210.78
2022-08-01T15:17:09.882Z,100209.22
2022-08-01T15:22:32.311Z,100210.00
2022-08-01T15:27:54.158Z,100206.22
2022-08-01T15:33:15.999Z,100216.91
2022-08-01T15:38:37.852Z,100202.31
2022-08-01T15:43:59.697Z,100214.28
2022-08-01T15:49:21.611Z,100203.84
2022-08-01T15:54:43.513Z,100212.00
2022-08-01T16:00:06.327Z,100208.47
2022-08-01T16:05:28.164Z,100202.56
2022-08-01T16:10:50.078Z,100205.00
2022-08-01T16:16:12.500Z,100213.22
2022-08-01T16:21:34.497Z,100217.63
2022-08-01T16:26:56.995Z,100218.59
2022-08-01T16:32:27.268Z,100205.31
2022-08-01T16:37:56.100Z,100223.06
2022-08-01T16:43:19.681Z,100227.47
2022-08-01T16:48:41.587Z,100223.31
2022-08-01T16:54:03.763Z,100220.97
2022-08-01T16:59:45.645Z,100216.69
2022-08-01T17:05:12.469Z,100227.03
2022-08-01T17:10:35.613Z,100230.31
2022-08-01T17:15:57.519Z,100239.44
2022-08-01T17:21:19.436Z,100239.69
2022-08-01T17:26:41.340Z,100244.84
2022-08-01T17:32:03.321Z,100243.22
2022-08-01T17:37:25.227Z,100237.13
2022-08-01T17:42:47.066Z,100248.97
2022-08-01T17:48:09.573Z,100247.56
2022-08-01T17:53:31.428Z,100253.16
2022-08-01T17:58:53.764Z,100254.97
2022-08-01T18:04:15.633Z,100261.34
2022-08-01T18:09:44.233Z,100262.75
2022-08-01T18:15:08.180Z,100262.72
2022-08-01T18:20:30.124Z,100257.44
2022-08-01T18:25:52.032Z,100263.41
2022-08-01T18:31:15.098Z,100261.06
2022-08-01T18:36:36.946Z,100273.28
2022-08-01T18:42:02.324Z,100283.66
2022-08-01T18:47:24.179Z,100295.31
2022-08-01T18:52:46.025Z,100293.06
2022-08-01T18:58:07.834Z,100297.19
2022-08-01T19:03:29.694Z,100303.72
2022-08-01T19:08:55.699Z,100296.75
2022-08-01T19:14:18.902Z,100312.56
2022-08-01T19:19:40.712Z,100318.25
2022-08-01T19:25:03.151Z,100317.66
2022-08-01T19:30:25.212Z,100319.97
2022-08-01T19:35:52.156Z,100328.72
2022-08-01T19:41:18.347Z,100334.53
2022-08-01T19:46:41.051Z,100332.38
2022-08-01T19:52:03.986Z,100333.06
2022-08-01T19:57:26.628Z,100335.72
2022-08-01T20:03:07.971Z,100319.97
2022-08-01T20:08:32.300Z,100331.06
2022-08-01T20:13:56.113Z,100330.88
2022-08-01T20:19:19.180Z,100335.94
2022-08-01T20:24:43.576Z,100335.69
2022-08-01T20:30:06.747Z,100336.63
2022-08-01T20:35:53.494Z,100324.25
2022-08-01T20:41:11.281Z,100337.94
2022-08-01T20:46:33.839Z,100338.00
2022-08-01T20:51:56.004Z,100334.19
2022-08-01T20:57:27.888Z,100336.09
2022-08-01T21:03:11.815Z,100344.50
2022-08-01T21:08:43.738Z,100340.88
2022-08-01T21:14:10.674Z,100333.00
2022-08-01T21:19:34.558Z,100346.63
2022-08-01T21:25:03.314Z,100333.28
2022-08-01T21:30:27.147Z,100347.84
2022-08-01T21:35:49.299Z,100348.38
2022-08-01T21:41:12.068Z,100341.34
2022-08-01T21:46:34.232Z,100344.34
2022-08-01T21:52:11.557Z,100351.03
2022-08-01T21:58:01.274Z,100355.59
2022-08-01T22:03:36.405Z,100343.31
2022-08-01T22:09:04.735Z,100351.78
2022-08-01T22:14:29.111Z,100355.94
2022-08-01T22:19:53.813Z,100342.91
2022-08-01T22:25:15.819Z,100352.34
2022-08-01T22:30:41.783Z,100355.59
2022-08-01T22:36:06.019Z,100368.06
2022-08-01T22:41:30.980Z,100363.66
2022-08-01T22:47:25.619Z,100376.47
2022-08-01T22:53:12.722Z,100374.44
2022-08-01T22:58:34.903Z,100378.84
2022-08-01T23:03:59.219Z,100377.91
2022-08-01T23:09:22.197Z,100375.16
2022-08-01T23:15:01.899Z,100377.19
2022-08-01T23:20:24.046Z,100376.22
2022-08-01T23:25:48.147Z,100384.25
2022-08-01T23:31:11.362Z,100389.91
2022-08-01T23:36:33.256Z,100370.19
2022-08-01T23:41:57.772Z,100383.91
2022-08-01T23:47:29.704Z,100380.47
2022-08-01T23:52:52.959Z,100387.28
2022-08-01T23:58:14.794Z,100379.50
